createdAt,value
2023-02-22T00:01:50.792Z,72.92
2023-02-22T00:04:21.002Z,72.85
2023-02-22T00:06:48.906Z,73.20
2023-02-22T00:09:20.346Z,72.03
2023-02-22T00:11:48.688Z,72.84
2023-02-22T00:14:20.180Z,71.58
2023-02-22T00:16:47.284Z,72.89
2023-02-22T00:19:14.001Z,73.08
2023-02-22T00:21:40.569Z,73.33
2023-02-22T00:24:23.059Z,73.52
2023-02-22T00:26:55.450Z,73.79
2023-02-22T00:29:23.293Z,73.07
2023-02-22T00:31:49.917Z,73.02
2023-02-22T00:34:16.708Z,73.33
2023-02-22T00:36:50.108Z,74.77
2023-02-22T00:39:16.936Z,73.58
2023-02-22T00:41:43.961Z,73.12
2023-02-22T00:44:11.150Z,73.13
2023-02-22T00:46:39.177Z,73.00
2023-02-22T00:49:05.766Z,73.90
2023-02-22T00:51:33.777Z,73.67
2023-02-22T00:54:00.499Z,73.66
2023-02-22T00:56:27.087Z,73.49
2023-02-22T00:58:53.697Z,74.89
2023-02-22T01:01:20.666Z,71.61
2023-02-22T01:03:47.513Z,71.83
2023-02-22T01:06:14.208Z,73.67
2023-02-22T01:08:44.951Z,72.93
2023-02-22T01:11:12.716Z,73.78
2023-02-22T01:13:40.417Z,72.47
2023-02-22T01:16:10.345Z,72.76
2023-02-22T01:18:37.582Z,72.80
2023-02-22T01:21:04.896Z,73.80
2023-02-22T01:23:31.816Z,72.76
2023-02-22T01:25:58.856Z,73.23
2023-02-22T01:28:25.550Z,73.19
2023-02-22T01:30:52.549Z,72.79
2023-02-22T01:33:19.340Z,72.35
2023-02-22T01:35:46.832Z,72.68
2023-02-22T01:38:14.354Z,72.32
2023-02-22T01:40:43.400Z,70.62
2023-02-22T01:43:29.942Z,72.57
2023-02-22T01:46:18.995Z,73.58
2023-02-22T01:48:49.798Z,74.74
2023-02-22T01:51:23.515Z,75.57
2023-02-22T01:54:04.497Z,75.37
2023-02-22T01:56:36.740Z,75.74
2023-02-22T01:59:07.625Z,77.01
2023-02-22T02:01:37.980Z,76.51
2023-02-22T02:04:11.036Z,75.86
2023-02-22T02:06:38.558Z,75.87
2023-02-22T02:09:30.865Z,76.95
2023-02-22T02:12:02.689Z,77.19
2023-02-22T02:14:31.881Z,77.21
2023-02-22T02:17:01.305Z,76.47
2023-02-22T02:19:51.893Z,76.84
2023-02-22T02:22:46.539Z,76.17
2023-02-22T02:25:41.006Z,75.43
2023-02-22T02:28:26.439Z,76.59
2023-02-22T02:31:30.244Z,74.52
2023-02-22T02:34:05.208Z,75.41
2023-02-22T02:36:46.176Z,74.79
2023-02-22T02:39:25.625Z,75.61
2023-02-22T02:41:52.335Z,76.39
2023-02-22T02:44:31.373Z,76.50
2023-02-22T02:47:01.121Z,76.61
2023-02-22T02:49:56.797Z,77.26
2023-02-22T02:52:25.050Z,78.48
2023-02-22T02:54:53.504Z,79.09
2023-02-22T02:57:20.201Z,78.73
2023-02-22T02:59:46.911Z,80.01
2023-02-22T03:02:33.997Z,80.43
2023-02-22T03:05:15.777Z,81.27
2023-02-22T03:07:55.590Z,82.73
2023-02-22T03:10:26.485Z,82.74
2023-02-22T03:12:55.995Z,83.81
2023-02-22T03:15:32.372Z,84.06
2023-02-22T03:18:07.352Z,83.53
2023-02-22T03:20:43.153Z,83.83
2023-02-22T03:23:32.523Z,85.25
2023-02-22T03:26:04.550Z,85.26
2023-02-22T03:28:35.044Z,84.20
2023-02-22T03:31:07.217Z,83.91
2023-02-22T03:33:45.458Z,83.68
2023-02-22T03:36:18.178Z,85.24
2023-02-22T03:38:46.132Z,86.17
2023-02-22T03:41:18.809Z,85.22
2023-02-22T03:43:54.517Z,85.96
2023-02-22T03:46:22.605Z,86.25
2023-02-22T03:49:25.216Z,86.64
2023-02-22T03:51:53.689Z,85.93
2023-02-22T03:54:21.304Z,85.76
2023-02-22T03:56:54.241Z,86.20
2023-02-22T03:59:27.559Z,86.40
2023-02-22T04:01:55.468Z,85.15
2023-02-22T04:04:23.799Z,86.13
2023-02-22T04:06:52.309Z,85.54
2023-02-22T04:09:19.262Z,85.12
2023-02-22T04:11:46.035Z,85.25
2023-02-22T04:14:13.156Z,85.02
2023-02-22T04:16:39.892Z,84.22
2023-02-22T04:19:09.023Z,83.09
2023-02-22T04:21:37.643Z,84.93
2023-02-22T04:24:05.829Z,84.28
2023-02-22T04:26:32.478Z,83.51
2023-02-22T04:29:01.578Z,82.32
2023-02-22T04:31:34.699Z,82.53
2023-02-22T04:34:03.325Z,83.02
2023-02-22T04:36:33.585Z,82.12
2023-02-22T04:39:01.359Z,81.21
2023-02-22T04:41:31.374Z,81.17
2023-02-22T04:43:57.965Z,82.06
2023-02-22T04:46:26.392Z,81.24
2023-02-22T04:48:54.215Z,80.01
2023-02-22T04:51:24.384Z,81.65
2023-02-22T04:53:58.658Z,81.18
2023-02-22T04:56:25.315Z,81.32
2023-02-22T04:58:52.000Z,80.48
2023-02-22T05:01:19.036Z,80.34
2023-02-22T05:03:46.848Z,80.68
2023-02-22T05:06:13.498Z,80.42
2023-02-22T05:08:40.310Z,80.75
2023-02-22T05:11:06.867Z,80.99
2023-02-22T05:13:33.564Z,80.64
2023-02-22T05:16:00.243Z,80.74
2023-02-22T05:18:27.182Z,81.33
2023-02-22T05:20:53.813Z,80.52
2023-02-22T05:23:20.492Z,80.94
2023-02-22T05:25:47.095Z,80.90
2023-02-22T05:28:15.337Z,80.27
2023-02-22T05:30:42.271Z,80.66
2023-02-22T05:33:09.800Z,78.96
2023-02-22T05:35:37.103Z,79.64
2023-02-22T05:38:04.612Z,81.14
2023-02-22T05:40:32.464Z,79.43
2023-02-22T05:42:59.829Z,79.75
2023-02-22T05:45:27.922Z,79.25
2023-02-22T05:47:58.218Z,79.19
2023-02-22T05:50:25.620Z,79.53
2023-02-22T05:52:53.598Z,78.49
2023-02-22T05:55:22.709Z,78.38
2023-02-22T05:57:50.030Z,78.78
2023-02-22T06:00:19.783Z,78.74
2023-02-22T06:02:46.862Z,80.48
2023-02-22T06:05:13.823Z,79.89
2023-02-22T06:07:40.486Z,79.45
2023-02-22T06:10:07.197Z,79.60
2023-02-22T06:12:33.777Z,79.54
2023-02-22T06:15:00.360Z,78.48
2023-02-22T06:17:26.930Z,79.33
2023-02-22T06:19:53.526Z,79.84
2023-02-22T06:22:20.089Z,79.40
2023-02-22T06:24:46.650Z,79.48
2023-02-22T06:27:13.306Z,80.16
2023-02-22T06:29:44.025Z,79.56
2023-02-22T06:32:11.070Z,80.09
2023-02-22T06:34:37.593Z,80.61
2023-02-22T06:37:04.174Z,80.07
2023-02-22T06:39:30.764Z,78.49
2023-02-22T06:41:57.819Z,81.07
2023-02-22T06:44:24.432Z,80.89
2023-02-22T06:46:51.766Z,81.31
2023-02-22T06:49:20.264Z,79.79
2023-02-22T06:51:47.571Z,78.90
2023-02-22T06:54:14.732Z,78.10
2023-02-22T06:56:41.412Z,79.17
2023-02-22T06:59:08.441Z,78.85
2023-02-22T07:01:35.360Z,79.07
2023-02-22T07:04:02.417Z,77.84
2023-02-22T07:06:29.046Z,78.69
2023-02-22T07:08:55.661Z,77.97
2023-02-22T07:11:22.488Z,77.92
2023-02-22T07:13:49.058Z,78.01
2023-02-22T07:16:15.827Z,79.62
2023-02-22T07:18:42.385Z,79.12
2023-02-22T07:21:09.033Z,79.74
2023-02-22T07:23:35.701Z,79.55
2023-02-22T07:26:03.386Z,79.12
2023-02-22T07:28:30.033Z,79.13
2023-02-22T07:30:56.675Z,79.40
2023-02-22T07:33:23.330Z,78.87
2023-02-22T07:35:50.952Z,79.03
2023-02-22T07:38:19.510Z,79.07
2023-02-22T07:40:46.384Z,79.45
2023-02-22T07:43:29.396Z,78.73
2023-02-22T07:46:00.448Z,79.42
2023-02-22T07:48:29.434Z,78.30
2023-02-22T07:50:56.588Z,78.99
2023-02-22T07:53:30.418Z,80.37
2023-02-22T07:56:02.604Z,79.11
2023-02-22T07:58:31.256Z,78.72
2023-02-22T08:00:58.793Z,79.36
2023-02-22T08:03:26.976Z,79.38
2023-02-22T08:05:56.157Z,79.73
2023-02-22T08:08:23.382Z,80.32
2023-02-22T08:10:51.683Z,79.11
2023-02-22T08:13:19.399Z,80.73
2023-02-22T08:15:47.065Z,81.48
2023-02-22T08:18:16.896Z,81.70
2023-02-22T08:20:45.537Z,81.02
2023-02-22T08:23:13.903Z,80.94
2023-02-22T08:25:41.076Z,79.58
2023-02-22T08:28:11.292Z,81.75
2023-02-22T08:30:40.893Z,80.95
2023-02-22T08:33:08.212Z,81.20
2023-02-22T08:35:34.851Z,81.75
2023-02-22T08:38:05.033Z,81.53
2023-02-22T08:40:34.704Z,81.24
2023-02-22T08:43:04.619Z,80.80
2023-02-22T08:45:31.260Z,82.42
2023-02-22T08:47:59.316Z,82.02
2023-02-22T08:50:29.468Z,82.88
2023-02-22T08:52:59.244Z,82.00
2023-02-22T08:55:28.882Z,83.47
2023-02-22T08:57:55.647Z,82.80
2023-02-22T09:00:26.165Z,81.18
2023-02-22T09:02:53.177Z,81.67
2023-02-22T09:05:20.163Z,81.96
2023-02-22T09:07:47.684Z,82.63
2023-02-22T09:10:27.534Z,82.11
2023-02-22T09:12:58.073Z,83.19
2023-02-22T09:15:25.975Z,81.96
2023-02-22T09:17:54.092Z,82.21
2023-02-22T09:20:23.371Z,81.13
2023-02-22T09:22:50.291Z,82.35
2023-02-22T09:25:18.199Z,82.36
2023-02-22T09:27:48.971Z,83.35
2023-02-22T09:30:19.118Z,82.18
2023-02-22T09:32:46.318Z,83.29
2023-02-22T09:35:13.161Z,82.65
2023-02-22T09:37:39.758Z,81.44
2023-02-22T09:40:10.100Z,82.31
2023-02-22T09:42:49.003Z,81.82
2023-02-22T09:45:23.723Z,82.26
2023-02-22T09:48:11.708Z,82.58
2023-02-22T09:50:51.345Z,82.08
2023-02-22T09:53:42.121Z,81.44
2023-02-22T09:56:14.871Z,81.38
2023-02-22T09:58:47.674Z,80.03
2023-02-22T10:01:39.825Z,80.72
2023-02-22T10:04:24.406Z,80.08
2023-02-22T10:07:28.888Z,81.53
2023-02-22T10:09:57.954Z,80.11
2023-02-22T10:12:42.217Z,80.25
2023-02-22T10:15:27.444Z,81.08
2023-02-22T10:18:39.046Z,80.46
2023-02-22T10:21:25.606Z,80.34
2023-02-22T10:24:12.779Z,79.95
2023-02-22T10:26:44.951Z,80.03
2023-02-22T10:29:11.509Z,79.15
2023-02-22T10:31:45.812Z,80.45
2023-02-22T10:34:23.333Z,80.23
2023-02-22T10:37:14.105Z,80.37
2023-02-22T10:39:44.514Z,80.50
2023-02-22T10:42:11.245Z,80.68
2023-02-22T10:44:39.226Z,80.07
2023-02-22T10:47:11.864Z,78.76
2023-02-22T10:49:46.528Z,77.01
2023-02-22T10:52:20.477Z,76.62
2023-02-22T10:54:50.356Z,75.78
2023-02-22T10:57:21.028Z,74.98
2023-02-22T10:59:52.039Z,73.84
2023-02-22T11:02:27.640Z,74.72
2023-02-22T11:04:57.155Z,73.63
2023-02-22T11:07:36.858Z,72.73
2023-02-22T11:10:09.224Z,72.78
2023-02-22T11:12:38.688Z,72.88
2023-02-22T11:15:18.797Z,72.15
2023-02-22T11:17:49.599Z,72.54
2023-02-22T11:20:25.453Z,72.45
2023-02-22T11:22:57.961Z,72.97
2023-02-22T11:25:28.545Z,73.07
2023-02-22T11:27:55.921Z,72.74
2023-02-22T11:30:22.780Z,72.22
2023-02-22T11:33:11.880Z,71.90
2023-02-22T11:35:59.987Z,71.41
2023-02-22T11:38:36.725Z,73.11
2023-02-22T11:41:17.385Z,70.38
2023-02-22T11:43:46.937Z,70.59
2023-02-22T11:46:18.638Z,70.40
2023-02-22T11:49:04.501Z,69.37
2023-02-22T11:51:53.043Z,69.00
2023-02-22T11:54:57.439Z,67.68
2023-02-22T11:57:41.061Z,66.36
2023-02-22T12:00:28.749Z,66.53
2023-02-22T12:03:14.298Z,66.85
2023-02-22T12:06:14.212Z,66.25
2023-02-22T12:09:02.661Z,66.37
2023-02-22T12:11:50.914Z,64.14
2023-02-22T12:14:31.991Z,63.82
2023-02-22T12:17:19.530Z,63.40
2023-02-22T12:19:54.553Z,62.35
2023-02-22T12:22:28.657Z,61.42
2023-02-22T12:25:09.775Z,60.33
2023-02-22T12:27:43.536Z,61.14
2023-02-22T12:30:29.806Z,59.85
2023-02-22T12:33:06.296Z,59.15
2023-02-22T12:35:41.880Z,59.63
2023-02-22T12:38:23.766Z,57.01
2023-02-22T12:41:22.563Z,55.85
2023-02-22T12:44:04.355Z,54.42
2023-02-22T12:46:41.891Z,54.70
2023-02-22T12:49:35.916Z,55.02
2023-02-22T12:52:27.216Z,55.01
2023-02-22T12:55:12.502Z,54.38
2023-02-22T12:58:06.535Z,55.36
2023-02-22T13:00:42.548Z,54.75
2023-02-22T13:03:27.917Z,53.21
2023-02-22T13:06:17.464Z,53.41
2023-02-22T13:09:02.212Z,53.63
2023-02-22T13:11:59.429Z,52.69
2023-02-22T13:14:49.666Z,51.44
2023-02-22T13:18:01.488Z,49.98
2023-02-22T13:20:41.762Z,51.85
2023-02-22T13:23:39.074Z,51.23
2023-02-22T13:26:20.341Z,50.33
2023-02-22T13:28:57.173Z,51.04
2023-02-22T13:31:36.508Z,48.73
2023-02-22T13:34:31.128Z,47.73
2023-02-22T13:37:35.780Z,46.83
2023-02-22T13:40:37.904Z,45.58
2023-02-22T13:43:30.665Z,45.80
2023-02-22T13:46:05.182Z,47.22
2023-02-22T13:48:50.258Z,45.68
2023-02-22T13:51:35.350Z,46.30
2023-02-22T13:54:29.994Z,47.15
2023-02-22T13:56:57.403Z,47.70
2023-02-22T13:59:31.324Z,48.66
2023-02-22T14:02:00.761Z,49.28
2023-02-22T14:04:27.399Z,49.06
2023-02-22T14:07:00.610Z,48.15
2023-02-22T14:09:50.458Z,47.56
2023-02-22T14:12:29.202Z,47.26
2023-02-22T14:15:26.779Z,46.52
2023-02-22T14:18:03.694Z,45.57
2023-02-22T14:20:36.089Z,45.60
2023-02-22T14:23:24.365Z,44.40
2023-02-22T14:25:51.761Z,44.98
2023-02-22T14:28:40.218Z,45.95
2023-02-22T14:31:08.322Z,45.79
2023-02-22T14:33:50.270Z,45.63
2023-02-22T14:36:17.982Z,44.94
2023-02-22T14:38:46.257Z,43.93
2023-02-22T14:41:16.747Z,44.55
2023-02-22T14:43:44.075Z,44.11
2023-02-22T14:46:20.330Z,43.19
2023-02-22T14:48:49.279Z,42.12
2023-02-22T14:51:23.206Z,42.02
2023-02-22T14:54:13.206Z,42.40
2023-02-22T14:56:53.901Z,41.46
2023-02-22T14:59:26.256Z,41.95
2023-02-22T15:02:12.045Z,41.80
2023-02-22T15:04:43.695Z,42.91
2023-02-22T15:07:28.520Z,42.69
2023-02-22T15:10:07.661Z,43.26
2023-02-22T15:12:34.324Z,43.60
2023-02-22T15:15:22.243Z,43.32
2023-02-22T15:17:54.380Z,43.92
2023-02-22T15:20:21.896Z,44.47
2023-02-22T15:22:49.876Z,44.79
2023-02-22T15:25:23.838Z,44.76
2023-02-22T15:27:50.468Z,44.15
2023-02-22T15:30:26.415Z,44.53
2023-02-22T15:33:03.700Z,44.77
2023-02-22T15:35:33.390Z,44.78
2023-02-22T15:38:06.361Z,44.62
2023-02-22T15:40:34.565Z,45.59
2023-02-22T15:43:04.920Z,45.73
2023-02-22T15:45:34.456Z,44.96
2023-02-22T15:48:01.839Z,46.07
2023-02-22T15:50:32.225Z,46.37
2023-02-22T15:53:03.360Z,46.90
2023-02-22T15:55:32.922Z,46.50
2023-02-22T15:58:07.124Z,46.66
2023-02-22T16:00:39.410Z,46.85
2023-02-22T16:03:15.134Z,46.34
2023-02-22T16:05:49.152Z,46.80
2023-02-22T16:08:23.997Z,46.96
2023-02-22T16:10:59.490Z,46.93
2023-02-22T16:13:32.672Z,47.65
2023-02-22T16:16:02.866Z,46.82
2023-02-22T16:18:36.018Z,47.18
2023-02-22T16:21:11.787Z,48.69
2023-02-22T16:23:48.428Z,48.22
2023-02-22T16:26:34.837Z,47.97
2023-02-22T16:29:08.148Z,47.81
2023-02-22T16:31:37.712Z,48.22
2023-02-22T16:34:07.403Z,48.02
2023-02-22T16:36:44.724Z,48.81
2023-02-22T16:43:15.412Z,49.03
2023-02-22T16:45:42.666Z,48.74
2023-02-22T16:48:19.612Z,49.70
2023-02-22T16:50:48.481Z,49.70
2023-02-22T16:53:19.911Z,49.98
2023-02-22T16:55:48.032Z,50.58
2023-02-22T16:58:16.228Z,50.38
2023-02-22T17:00:43.698Z,50.53
2023-02-22T17:03:15.222Z,50.90
2023-02-22T17:05:42.151Z,51.02
2023-02-22T17:08:08.726Z,51.44
2023-02-22T17:10:35.680Z,51.48
2023-02-22T17:13:16.209Z,51.41
2023-02-22T17:15:48.759Z,51.91
2023-02-22T17:22:53.700Z,52.76
2023-02-22T17:25:24.061Z,53.00
2023-02-22T17:27:50.779Z,53.55
2023-02-22T17:30:18.383Z,53.40
2023-02-22T17:32:45.109Z,53.76
2023-02-22T17:35:11.726Z,54.21
2023-02-22T17:37:38.482Z,53.84
2023-02-22T17:40:05.760Z,53.03
2023-02-22T17:42:32.486Z,53.09
2023-02-22T17:44:59.028Z,53.86
2023-02-22T17:47:26.146Z,54.09
2023-02-22T17:49:52.919Z,54.27
2023-02-22T17:52:19.539Z,54.69
2023-02-22T17:54:46.191Z,55.41
2023-02-22T17:57:12.882Z,55.59
2023-02-22T17:59:40.614Z,55.36
2023-02-22T18:02:07.654Z,55.80
2023-02-22T18:04:39.481Z,56.56
2023-02-22T18:07:06.190Z,57.05
2023-02-22T18:09:34.027Z,57.23
2023-02-22T18:12:00.768Z,57.34
2023-02-22T18:14:27.651Z,57.70
2023-02-22T18:16:54.416Z,57.75
2023-02-22T18:19:23.340Z,58.41
2023-02-22T18:21:50.118Z,57.80
2023-02-22T18:24:17.335Z,56.82
2023-02-22T18:26:44.022Z,56.37
2023-02-22T18:29:12.330Z,56.48
2023-02-22T18:31:38.999Z,56.88
2023-02-22T18:34:05.590Z,57.26
2023-02-22T18:36:32.362Z,57.05
2023-02-22T18:38:58.901Z,57.99
2023-02-22T18:41:25.957Z,57.79
2023-02-22T18:43:55.080Z,57.94
2023-02-22T18:46:23.564Z,58.44
2023-02-22T18:48:53.940Z,58.69
2023-02-22T18:51:20.918Z,59.32
2023-02-22T18:53:49.746Z,58.73
2023-02-22T18:56:21.983Z,59.17
2023-02-22T18:58:56.034Z,58.67
2023-02-22T19:01:23.324Z,59.36
2023-02-22T19:03:51.517Z,59.90
2023-02-22T19:06:19.043Z,60.17
2023-02-22T19:08:46.229Z,60.85
2023-02-22T19:11:17.834Z,61.21
2023-02-22T19:13:49.838Z,61.60
2023-02-22T19:16:20.855Z,61.10
2023-02-22T19:18:48.940Z,61.82
2023-02-22T19:21:16.409Z,61.92
2023-02-22T19:23:47.869Z,63.93
2023-02-22T19:26:20.647Z,64.47
2023-02-22T19:28:48.564Z,64.63
2023-02-22T19:31:17.013Z,65.35
2023-02-22T19:33:44.177Z,64.98
2023-02-22T19:36:13.609Z,64.32
2023-02-22T19:38:41.447Z,64.14
2023-02-22T19:41:10.665Z,64.40
2023-02-22T19:43:37.695Z,64.06
2023-02-22T19:46:07.888Z,63.55
2023-02-22T19:48:34.886Z,63.78
2023-02-22T19:51:03.706Z,64.47
2023-02-22T19:53:30.461Z,66.13
2023-02-22T19:55:57.132Z,66.43
2023-02-22T19:58:23.785Z,67.19
2023-02-22T20:00:51.005Z,67.72
2023-02-22T20:03:23.466Z,67.83
2023-02-22T20:05:50.150Z,67.75
2023-02-22T20:08:18.334Z,68.92
2023-02-22T20:10:46.364Z,67.91
2023-02-22T20:13:13.050Z,68.48
2023-02-22T20:15:39.822Z,69.24
2023-02-22T20:18:06.417Z,69.51
2023-02-22T20:20:33.476Z,70.04
2023-02-22T20:23:00.191Z,70.45
2023-02-22T20:25:26.847Z,70.67
2023-02-22T20:27:55.118Z,70.33
2023-02-22T20:30:22.910Z,70.94
2023-02-22T20:32:49.739Z,70.72
2023-02-22T20:35:16.648Z,71.13
2023-02-22T20:37:43.459Z,71.92
2023-02-22T20:40:10.475Z,71.93
2023-02-22T20:42:37.082Z,71.84
2023-02-22T20:45:06.125Z,72.27
2023-02-22T20:47:32.726Z,72.47
2023-02-22T20:49:59.454Z,73.65
2023-02-22T20:52:26.045Z,72.89
2023-02-22T20:54:52.595Z,72.22
2023-02-22T20:57:19.164Z,72.26
2023-02-22T20:59:46.131Z,71.65
2023-02-22T21:02:12.814Z,72.28
2023-02-22T21:04:39.991Z,71.66
2023-02-22T21:07:06.647Z,71.50
2023-02-22T21:09:33.788Z,72.35
2023-02-22T21:12:00.381Z,72.32
2023-02-22T21:14:27.069Z,71.78
2023-02-22T21:16:53.894Z,72.33
2023-02-22T21:19:31.865Z,72.84
2023-02-22T21:22:01.654Z,72.96
2023-02-22T21:24:29.144Z,72.98
2023-02-22T21:26:59.036Z,72.39
2023-02-22T21:29:27.529Z,73.51
2023-02-22T21:31:54.420Z,73.50
2023-02-22T21:34:22.588Z,75.41
2023-02-22T21:36:50.452Z,76.21
2023-02-22T21:39:20.373Z,75.36
2023-02-22T21:41:49.760Z,76.91
2023-02-22T21:44:17.252Z,76.33
2023-02-22T21:46:44.177Z,77.66
2023-02-22T21:49:11.544Z,77.15
2023-02-22T21:51:38.520Z,77.83
2023-02-22T21:54:07.412Z,77.10
2023-02-22T21:56:37.003Z,77.94
2023-02-22T21:59:05.052Z,79.95
2023-02-22T22:01:35.314Z,80.28
2023-02-22T22:04:04.169Z,80.14
2023-02-22T22:06:32.710Z,80.39
2023-02-22T22:09:00.999Z,80.06
2023-02-22T22:11:30.392Z,81.26
2023-02-22T22:13:57.618Z,81.72
2023-02-22T22:16:27.207Z,80.75
2023-02-22T22:18:55.013Z,83.56
2023-02-22T22:21:23.361Z,82.13
2023-02-22T22:23:54.348Z,82.80
2023-02-22T22:26:24.335Z,82.61
2023-02-22T22:28:57.765Z,82.64
2023-02-22T22:31:28.667Z,82.67
2023-02-22T22:33:56.295Z,83.02
2023-02-22T22:36:24.439Z,82.94
2023-02-22T22:38:52.595Z,83.14
2023-02-22T22:41:21.486Z,82.37
2023-02-22T22:43:48.292Z,82.96
2023-02-22T22:46:17.835Z,82.51
2023-02-22T22:48:47.120Z,82.25
2023-02-22T22:51:21.345Z,83.39
2023-02-22T22:53:49.972Z,83.66
2023-02-22T22:56:19.674Z,83.61
2023-02-22T22:58:52.182Z,83.74
2023-02-22T23:01:26.704Z,83.02
2023-02-22T23:04:01.677Z,83.55
2023-02-22T23:06:38.485Z,81.91
2023-02-22T23:09:15.122Z,82.83
2023-02-22T23:11:53.063Z,82.28
2023-02-22T23:14:23.941Z,82.72
2023-02-22T23:16:53.052Z,82.43
2023-02-22T23:19:20.186Z,83.75
2023-02-22T23:21:49.074Z,84.10
2023-02-22T23:24:21.129Z,84.12
2023-02-22T23:26:48.632Z,84.34
2023-02-22T23:29:20.657Z,84.08
2023-02-22T23:31:49.326Z,85.00
2023-02-22T23:34:17.450Z,85.57
2023-02-22T23:36:44.424Z,86.28
2023-02-22T23:39:12.218Z,86.79
2023-02-22T23:41:38.759Z,86.74
2023-02-22T23:44:08.250Z,87.02
2023-02-22T23:46:36.438Z,87.03
2023-02-22T23:49:04.130Z,87.15
2023-02-22T23:51:39.342Z,86.43
2023-02-22T23:54:07.228Z,87.54
2023-02-22T23:56:35.319Z,87.26
2023-02-22T23:59:10.585Z,87.96
